createdAt,value
2022-10-18T00:00:22.612Z,50.88
2022-10-18T00:00:55.249Z,50.97
2022-10-18T00:01:30.193Z,50.87
2022-10-18T00:02:02.449Z,50.92
2022-10-18T00:02:34.818Z,50.96
2022-10-18T00:03:09.913Z,51.13
2022-10-18T00:04:15.378Z,51.14
2022-10-18T00:04:50.193Z,50.83
2022-10-18T00:05:22.401Z,50.76
2022-10-18T00:05:54.726Z,50.83
2022-10-18T00:06:26.978Z,51.11
2022-10-18T00:07:01.816Z,50.98
2022-10-18T00:07:34.084Z,50.88
2022-10-18T00:08:06.345Z,51.00
2022-10-18T00:08:43.941Z,50.78
2022-10-18T00:09:16.622Z,51.14
2022-10-18T00:09:48.824Z,51.09
2022-10-18T00:10:24.738Z,50.92
2022-10-18T00:10:57.061Z,51.02
2022-10-18T00:11:29.345Z,51.06
2022-10-18T00:12:04.194Z,50.71
2022-10-18T00:12:37.522Z,51.08
2022-10-18T00:13:09.777Z,50.71
2022-10-18T00:13:45.872Z,51.07
2022-10-18T00:14:18.164Z,50.70
2022-10-18T00:14:50.875Z,50.92
2022-10-18T00:15:26.110Z,50.95
2022-10-18T00:16:00.145Z,50.78
2022-10-18T00:16:32.492Z,51.11
2022-10-18T00:17:07.316Z,50.70
2022-10-18T00:17:39.880Z,50.89
2022-10-18T00:18:13.022Z,50.78
2022-10-18T00:18:48.457Z,51.05
2022-10-18T00:19:26.031Z,50.75
2022-10-18T00:20:01.545Z,50.74
2022-10-18T00:20:36.504Z,51.02
2022-10-18T00:21:13.362Z,50.68
2022-10-18T00:21:45.644Z,51.01
2022-10-18T00:22:20.457Z,50.61
2022-10-18T00:22:52.717Z,50.71
2022-10-18T00:23:25.129Z,51.08
2022-10-18T00:24:02.919Z,51.01
2022-10-18T00:24:35.146Z,50.62
2022-10-18T00:25:08.810Z,50.57
2022-10-18T00:25:41.025Z,50.87
2022-10-18T00:26:17.988Z,50.57
2022-10-18T00:26:50.421Z,51.07
2022-10-18T00:27:22.679Z,51.00
2022-10-18T00:27:57.526Z,50.73
2022-10-18T00:28:29.875Z,50.93
2022-10-18T00:29:05.052Z,50.69
2022-10-18T00:29:39.918Z,50.91
2022-10-18T00:30:12.263Z,50.78
2022-10-18T00:30:44.492Z,51.04
2022-10-18T00:31:21.026Z,50.78
2022-10-18T00:31:53.399Z,50.78
2022-10-18T00:32:26.013Z,50.80
2022-10-18T00:33:00.929Z,50.94
2022-10-18T00:33:33.223Z,50.96
2022-10-18T00:34:07.743Z,50.88
2022-10-18T00:34:42.845Z,50.63
2022-10-18T00:35:15.233Z,50.57
2022-10-18T00:35:47.452Z,50.72
2022-10-18T00:36:20.365Z,50.75
2022-10-18T00:36:55.226Z,50.78
2022-10-18T00:37:28.001Z,50.56
2022-10-18T00:38:00.234Z,50.88
2022-10-18T00:38:35.092Z,50.69
2022-10-18T00:39:14.741Z,50.51
2022-10-18T00:39:49.683Z,50.87
2022-10-18T00:40:21.954Z,50.97
2022-10-18T00:40:54.173Z,50.87
2022-10-18T00:41:31.001Z,51.00
2022-10-18T00:42:03.678Z,50.66
2022-10-18T00:42:37.269Z,50.78
2022-10-18T00:43:14.717Z,50.49
2022-10-18T00:43:57.673Z,50.73
2022-10-18T00:45:14.082Z,50.47
2022-10-18T00:45:46.322Z,50.54
2022-10-18T00:46:18.537Z,50.76
2022-10-18T00:46:53.809Z,50.82
2022-10-18T00:47:26.037Z,50.64
2022-10-18T00:48:00.270Z,50.83
2022-10-18T00:48:35.085Z,50.49
2022-10-18T00:49:11.542Z,50.51
2022-10-18T00:49:45.942Z,50.86
2022-10-18T00:50:21.729Z,50.51
2022-10-18T00:50:54.005Z,50.50
2022-10-18T00:51:29.396Z,50.78
2022-10-18T00:52:06.990Z,51.00
2022-10-18T00:52:42.345Z,50.50
2022-10-18T00:53:18.429Z,50.78
2022-10-18T00:53:53.458Z,51.03
2022-10-18T00:54:29.217Z,51.06
2022-10-18T00:55:01.674Z,50.68
2022-10-18T00:55:37.294Z,50.97
2022-10-18T00:56:09.515Z,51.07
2022-10-18T00:56:44.825Z,50.54
2022-10-18T00:57:19.910Z,50.92
2022-10-18T00:57:52.442Z,50.80
2022-10-18T00:58:27.645Z,50.83
2022-10-18T00:58:59.940Z,50.78
2022-10-18T00:59:32.186Z,50.92
2022-10-18T01:00:10.135Z,50.47
2022-10-18T01:00:42.505Z,50.63
2022-10-18T01:01:15.033Z,50.51
2022-10-18T01:01:50.398Z,50.93
2022-10-18T01:02:22.835Z,50.70
2022-10-18T01:02:56.061Z,50.57
2022-10-18T01:03:30.965Z,51.04
2022-10-18T01:04:03.276Z,50.97
2022-10-18T01:04:35.833Z,50.78
2022-10-18T01:05:12.935Z,50.65
2022-10-18T01:05:47.106Z,50.62
2022-10-18T01:06:19.348Z,50.84
2022-10-18T01:07:09.149Z,50.86
2022-10-18T01:08:05.074Z,50.60
2022-10-18T01:08:49.653Z,50.79
2022-10-18T01:09:30.897Z,50.52
2022-10-18T01:10:09.950Z,50.56
2022-10-18T01:10:49.826Z,50.68
2022-10-18T01:11:36.297Z,50.54
2022-10-18T01:12:19.368Z,50.65
2022-10-18T01:13:09.085Z,50.85
2022-10-18T01:14:05.292Z,50.56
2022-10-18T01:14:45.618Z,50.54
2022-10-18T01:15:24.521Z,50.71
2022-10-18T01:16:03.590Z,50.59
2022-10-18T01:16:38.582Z,50.97
2022-10-18T01:17:16.839Z,50.90
2022-10-18T01:18:00.362Z,50.67
2022-10-18T01:18:38.167Z,50.75
2022-10-18T01:19:53.819Z,50.52
2022-10-18T01:21:02.436Z,51.00
2022-10-18T01:21:44.053Z,50.63
2022-10-18T01:22:21.461Z,50.93
2022-10-18T01:22:59.610Z,50.64
2022-10-18T01:23:46.090Z,50.67
2022-10-18T01:24:53.865Z,51.05
2022-10-18T01:25:39.738Z,50.71
2022-10-18T01:26:24.144Z,50.63
2022-10-18T01:27:12.119Z,51.07
2022-10-18T01:27:55.430Z,50.83
2022-10-18T01:28:39.451Z,50.76
2022-10-18T01:29:17.773Z,50.66
2022-10-18T01:30:00.699Z,50.71
2022-10-18T01:30:46.446Z,51.11
2022-10-18T01:31:22.967Z,50.65
2022-10-18T01:31:59.670Z,51.05
2022-10-18T01:32:35.573Z,50.81
2022-10-18T01:33:17.996Z,51.05
2022-10-18T01:33:53.589Z,50.97
2022-10-18T01:34:27.757Z,50.79
2022-10-18T01:35:06.054Z,50.93
2022-10-18T01:35:43.406Z,50.80
2022-10-18T01:36:19.165Z,50.69
2022-10-18T01:36:55.274Z,50.51
2022-10-18T01:37:28.978Z,50.90
2022-10-18T01:38:04.307Z,50.94
2022-10-18T01:38:40.282Z,50.71
2022-10-18T01:39:15.914Z,50.61
2022-10-18T01:39:51.284Z,50.42
2022-10-18T01:40:27.685Z,50.85
2022-10-18T01:41:01.273Z,50.49
2022-10-18T01:41:38.029Z,50.92
2022-10-18T01:42:12.030Z,50.56
2022-10-18T01:42:45.715Z,50.73
2022-10-18T01:43:18.895Z,50.75
2022-10-18T01:43:56.520Z,51.02
2022-10-18T01:44:30.749Z,50.49
2022-10-18T01:45:04.786Z,50.66
2022-10-18T01:45:37.565Z,50.73
2022-10-18T01:46:16.561Z,50.64
2022-10-18T01:46:48.848Z,50.54
2022-10-18T01:47:22.195Z,50.47
2022-10-18T01:47:57.626Z,50.88
2022-10-18T01:48:30.101Z,50.86
2022-10-18T01:49:02.340Z,50.51
2022-10-18T01:49:37.158Z,50.42
2022-10-18T01:50:10.052Z,50.77
2022-10-18T01:50:42.554Z,50.49
2022-10-18T01:51:17.396Z,50.54
2022-10-18T01:51:49.606Z,50.55
2022-10-18T01:52:21.815Z,50.48
2022-10-18T01:52:54.051Z,50.88
2022-10-18T01:53:32.003Z,50.62
2022-10-18T01:54:04.489Z,50.93
2022-10-18T01:54:39.513Z,50.48
2022-10-18T01:55:11.831Z,50.52
2022-10-18T01:55:51.379Z,50.85
2022-10-18T01:56:32.932Z,50.89
2022-10-18T01:57:13.956Z,50.75
2022-10-18T01:57:53.226Z,50.79
2022-10-18T01:58:30.038Z,50.70
2022-10-18T01:59:25.530Z,50.73
2022-10-18T02:00:01.776Z,50.46
2022-10-18T02:00:44.497Z,50.87
2022-10-18T02:01:31.437Z,50.83
2022-10-18T02:02:10.353Z,50.71
2022-10-18T02:02:47.177Z,50.59
2022-10-18T02:03:25.743Z,50.51
2022-10-18T02:04:06.142Z,50.43
2022-10-18T02:04:42.512Z,50.65
2022-10-18T02:05:22.428Z,50.45
2022-10-18T02:05:58.178Z,50.63
2022-10-18T02:06:32.528Z,50.75
2022-10-18T02:07:11.222Z,50.82
2022-10-18T02:07:51.966Z,50.69
2022-10-18T02:08:36.613Z,50.75
2022-10-18T02:09:15.518Z,50.56
2022-10-18T02:09:50.999Z,50.39
2022-10-18T02:10:26.848Z,50.36
2022-10-18T02:11:03.988Z,50.37
2022-10-18T02:11:37.442Z,50.48
2022-10-18T02:12:11.576Z,50.52
2022-10-18T02:12:47.577Z,50.71
2022-10-18T02:13:21.655Z,50.41
2022-10-18T02:13:56.995Z,50.70
2022-10-18T02:14:32.641Z,50.80
2022-10-18T02:15:06.447Z,50.90
2022-10-18T02:15:40.901Z,50.41
2022-10-18T02:16:19.190Z,50.88
2022-10-18T02:16:56.398Z,50.54
2022-10-18T02:17:30.052Z,50.62
2022-10-18T02:18:06.634Z,50.39
2022-10-18T02:18:42.817Z,50.61
2022-10-18T02:19:19.031Z,50.59
2022-10-18T02:19:56.221Z,50.45
2022-10-18T02:20:29.119Z,50.32
2022-10-18T02:21:02.273Z,50.51
2022-10-18T02:21:37.497Z,50.76
2022-10-18T02:22:11.258Z,50.64
2022-10-18T02:22:46.083Z,50.84
2022-10-18T02:23:24.488Z,50.81
2022-10-18T02:23:58.842Z,50.43
2022-10-18T02:24:35.166Z,50.42
2022-10-18T02:25:12.690Z,50.85
2022-10-18T02:25:44.917Z,50.35
2022-10-18T02:26:17.389Z,50.66
2022-10-18T02:26:49.629Z,50.81
2022-10-18T02:27:24.900Z,50.76
2022-10-18T02:27:57.237Z,50.36
2022-10-18T02:28:29.528Z,50.35
2022-10-18T02:29:04.426Z,50.66
2022-10-18T02:29:36.884Z,50.36
2022-10-18T02:30:10.499Z,50.42
2022-10-18T02:30:50.448Z,50.77
2022-10-18T02:31:27.298Z,51.62
2022-10-18T02:32:05.011Z,51.52
2022-10-18T02:32:42.703Z,51.29
2022-10-18T02:33:17.598Z,50.95
2022-10-18T02:33:54.138Z,50.73
2022-10-18T02:34:32.643Z,50.28
2022-10-18T02:35:06.985Z,50.52
2022-10-18T02:35:42.569Z,50.37
2022-10-18T02:36:22.335Z,50.00
2022-10-18T02:36:57.038Z,49.87
2022-10-18T02:37:35.290Z,49.84
2022-10-18T02:38:08.206Z,49.51
2022-10-18T02:38:40.962Z,49.58
2022-10-18T02:39:21.105Z,49.44
2022-10-18T02:39:53.569Z,49.37
2022-10-18T02:40:26.275Z,49.15
2022-10-18T02:41:01.570Z,49.10
2022-10-18T02:41:34.397Z,49.42
2022-10-18T02:42:08.078Z,49.36
2022-10-18T02:42:47.984Z,48.88
2022-10-18T02:43:20.227Z,49.24
2022-10-18T02:43:52.529Z,48.98
2022-10-18T02:44:27.595Z,49.04
2022-10-18T02:44:59.821Z,48.85
2022-10-18T02:45:32.166Z,49.13
2022-10-18T02:46:07.168Z,49.03
2022-10-18T02:46:40.033Z,48.61
2022-10-18T02:47:14.864Z,48.94
2022-10-18T02:47:49.725Z,48.71
2022-10-18T02:48:21.944Z,48.44
2022-10-18T02:48:54.187Z,48.45
2022-10-18T02:49:29.135Z,48.38
2022-10-18T02:50:01.365Z,48.67
2022-10-18T02:50:33.578Z,48.57
2022-10-18T02:51:06.164Z,48.74
2022-10-18T02:51:41.073Z,48.36
2022-10-18T02:52:13.297Z,48.70
2022-10-18T02:52:45.555Z,48.23
2022-10-18T02:53:20.368Z,48.48
2022-10-18T02:53:52.654Z,48.63
2022-10-18T02:54:25.033Z,48.43
2022-10-18T02:54:59.865Z,48.21
2022-10-18T02:55:32.070Z,48.57
2022-10-18T02:56:04.700Z,48.14
2022-10-18T02:56:39.531Z,48.35
2022-10-18T02:57:11.782Z,48.15
2022-10-18T02:57:44.115Z,48.43
2022-10-18T02:58:18.922Z,48.53
2022-10-18T02:58:51.170Z,48.04
2022-10-18T02:59:23.376Z,48.40
2022-10-18T02:59:58.364Z,48.09
2022-10-18T03:00:30.635Z,48.30
2022-10-18T03:01:02.942Z,48.07
2022-10-18T03:01:37.967Z,48.32
2022-10-18T03:02:10.216Z,48.50
2022-10-18T03:02:45.236Z,48.03
2022-10-18T03:03:20.101Z,48.09
2022-10-18T03:03:52.358Z,48.09
2022-10-18T03:04:24.608Z,48.27
2022-10-18T03:04:59.445Z,48.43
2022-10-18T03:05:31.649Z,48.58
2022-10-18T03:06:04.115Z,48.27
2022-10-18T03:06:36.350Z,48.08
2022-10-18T03:07:11.166Z,48.45
2022-10-18T03:07:43.405Z,48.44
2022-10-18T03:08:15.822Z,48.04
2022-10-18T03:08:50.655Z,48.43
2022-10-18T03:09:22.902Z,48.31
2022-10-18T03:09:55.105Z,48.51
2022-10-18T03:10:30.155Z,48.45
2022-10-18T03:11:02.586Z,48.24
2022-10-18T03:11:34.947Z,48.07
2022-10-18T03:12:09.777Z,48.33
2022-10-18T03:12:41.995Z,48.22
2022-10-18T03:13:14.537Z,48.24
2022-10-18T03:13:50.443Z,48.49
2022-10-18T03:14:23.300Z,48.40
2022-10-18T03:14:55.513Z,48.47
2022-10-18T03:15:30.332Z,47.97
2022-10-18T03:16:02.628Z,48.18
2022-10-18T03:16:35.112Z,48.31
2022-10-18T03:17:10.000Z,48.29
2022-10-18T03:17:44.810Z,47.99
2022-10-18T03:18:17.013Z,48.36
2022-10-18T03:18:51.894Z,48.21
2022-10-18T03:19:24.134Z,48.32
2022-10-18T03:19:56.337Z,48.43
2022-10-18T03:20:31.195Z,48.00
2022-10-18T03:21:05.509Z,47.98
2022-10-18T03:21:37.758Z,48.04
2022-10-18T03:22:12.579Z,48.18
2022-10-18T03:22:44.785Z,48.14
2022-10-18T03:23:16.999Z,48.33
2022-10-18T03:23:51.954Z,48.26
2022-10-18T03:24:24.233Z,48.48
2022-10-18T03:24:56.450Z,48.43
2022-10-18T03:25:31.322Z,48.46
2022-10-18T03:26:03.819Z,48.07
2022-10-18T03:26:36.105Z,48.41
2022-10-18T03:27:10.941Z,48.20
2022-10-18T03:27:43.166Z,48.16
2022-10-18T03:28:15.370Z,48.31
2022-10-18T03:28:50.282Z,47.94
2022-10-18T03:29:22.604Z,48.21
2022-10-18T03:29:54.808Z,47.95
2022-10-18T03:30:29.669Z,47.95
2022-10-18T03:31:02.241Z,48.37
2022-10-18T03:31:34.573Z,48.37
2022-10-18T03:32:09.699Z,48.18
2022-10-18T03:32:44.606Z,48.31
2022-10-18T03:33:17.041Z,48.23
2022-10-18T03:33:51.933Z,48.24
2022-10-18T03:34:24.321Z,47.90
2022-10-18T03:34:56.545Z,48.33
2022-10-18T03:35:28.787Z,47.97
2022-10-18T03:36:03.600Z,48.48
2022-10-18T03:36:38.883Z,48.42
2022-10-18T03:37:11.130Z,47.96
2022-10-18T03:37:43.364Z,48.32
2022-10-18T03:38:18.186Z,48.41
2022-10-18T03:38:50.530Z,48.00
2022-10-18T03:39:22.750Z,47.95
2022-10-18T03:39:57.579Z,48.21
2022-10-18T03:41:24.649Z,48.50
2022-10-18T03:41:56.933Z,48.54
2022-10-18T03:42:29.254Z,48.10
2022-10-18T03:43:01.655Z,48.24
2022-10-18T03:43:36.494Z,48.31
2022-10-18T03:44:08.983Z,48.25
2022-10-18T03:44:43.837Z,48.49
2022-10-18T03:45:16.173Z,48.31
2022-10-18T03:45:48.380Z,48.16
2022-10-18T03:46:23.232Z,48.23
2022-10-18T03:46:55.441Z,48.40
2022-10-18T03:47:27.649Z,48.28
2022-10-18T03:48:05.110Z,48.48
2022-10-18T03:48:37.323Z,48.45
2022-10-18T03:49:09.536Z,48.26
2022-10-18T03:49:44.346Z,48.48
2022-10-18T03:50:16.608Z,48.42
2022-10-18T03:50:48.822Z,48.48
2022-10-18T03:51:23.688Z,48.04
2022-10-18T03:51:55.900Z,48.08
2022-10-18T03:52:28.176Z,48.04
2022-10-18T03:53:03.077Z,48.01
2022-10-18T03:53:35.288Z,48.51
2022-10-18T03:54:07.529Z,48.40
2022-10-18T03:54:42.358Z,47.92
2022-10-18T03:55:14.635Z,48.23
2022-10-18T03:55:51.340Z,48.04
2022-10-18T03:56:26.229Z,48.06
2022-10-18T03:56:58.441Z,48.00
2022-10-18T03:57:30.689Z,48.07
2022-10-18T03:58:05.611Z,48.48
2022-10-18T03:58:37.844Z,48.21
2022-10-18T03:59:10.102Z,48.30
2022-10-18T03:59:44.905Z,48.30
2022-10-18T04:00:17.222Z,48.11
2022-10-18T04:00:50.635Z,48.13
2022-10-18T04:01:25.669Z,48.08
2022-10-18T04:01:58.013Z,47.89
2022-10-18T04:02:30.453Z,48.34
2022-10-18T04:03:08.134Z,47.87
2022-10-18T04:03:40.342Z,48.31
2022-10-18T04:04:15.202Z,48.16
2022-10-18T04:04:47.602Z,48.44
2022-10-18T04:05:19.826Z,48.08
2022-10-18T04:05:54.651Z,48.30
2022-10-18T04:06:26.962Z,48.14
2022-10-18T04:06:59.199Z,47.97
2022-10-18T04:07:31.552Z,48.19
2022-10-18T04:08:06.677Z,48.48
2022-10-18T04:08:38.887Z,47.95
2022-10-18T04:09:11.197Z,48.16
2022-10-18T04:09:46.027Z,48.22
2022-10-18T04:10:18.876Z,48.10
2022-10-18T04:10:52.656Z,48.12
2022-10-18T04:11:27.508Z,48.28
2022-10-18T04:11:59.730Z,48.14
2022-10-18T04:12:32.255Z,48.14
2022-10-18T04:13:07.405Z,47.86
2022-10-18T04:13:39.633Z,48.29
2022-10-18T04:14:11.892Z,48.28
2022-10-18T04:14:46.714Z,47.90
2022-10-18T04:15:18.979Z,48.31
2022-10-18T04:15:51.194Z,48.10
2022-10-18T04:16:26.211Z,48.04
2022-10-18T04:16:58.558Z,48.13
2022-10-18T04:17:31.012Z,48.12
2022-10-18T04:18:08.678Z,47.97
2022-10-18T04:18:40.905Z,48.32
2022-10-18T04:19:13.482Z,48.30
2022-10-18T04:19:49.467Z,48.14
2022-10-18T04:20:21.689Z,48.04
2022-10-18T04:20:56.532Z,48.15
2022-10-18T04:21:28.774Z,48.34
2022-10-18T04:22:01.106Z,48.10
2022-10-18T04:22:36.003Z,47.88
2022-10-18T04:23:08.241Z,48.12
2022-10-18T04:23:40.458Z,48.32
2022-10-18T04:24:15.315Z,48.31
2022-10-18T04:24:47.531Z,48.33
2022-10-18T04:25:19.775Z,48.16
2022-10-18T04:25:54.616Z,48.16
2022-10-18T04:26:26.897Z,48.03
2022-10-18T04:26:59.156Z,48.24
2022-10-18T04:27:34.250Z,48.23
2022-10-18T04:28:06.797Z,48.40
2022-10-18T04:28:40.356Z,48.00
2022-10-18T04:29:15.363Z,48.12
2022-10-18T04:29:47.568Z,48.00
2022-10-18T04:30:19.792Z,47.97
2022-10-18T04:30:55.128Z,48.35
2022-10-18T04:31:27.383Z,48.22
2022-10-18T04:31:59.675Z,48.15
2022-10-18T04:32:31.910Z,48.16
2022-10-18T04:33:09.395Z,48.26
2022-10-18T04:33:41.621Z,48.31
2022-10-18T04:34:13.849Z,48.43
2022-10-18T04:34:46.084Z,48.43
2022-10-18T04:35:24.584Z,48.03
2022-10-18T04:35:56.874Z,48.21
2022-10-18T04:36:29.099Z,48.45
2022-10-18T04:37:03.931Z,48.18
2022-10-18T04:37:36.451Z,47.99
2022-10-18T04:38:09.351Z,48.04
2022-10-18T04:38:44.212Z,48.05
2022-10-18T04:39:16.634Z,48.26
2022-10-18T04:39:52.588Z,48.26
2022-10-18T04:40:28.694Z,48.21
2022-10-18T04:41:00.919Z,48.02
2022-10-18T04:41:33.236Z,48.02
2022-10-18T04:42:08.202Z,47.87
2022-10-18T04:42:40.421Z,48.26
2022-10-18T04:43:12.639Z,48.43
2022-10-18T04:43:47.475Z,48.48
2022-10-18T04:44:19.738Z,48.49
2022-10-18T04:44:52.088Z,48.15
2022-10-18T04:45:26.909Z,48.57
2022-10-18T04:45:59.156Z,48.62
2022-10-18T04:46:31.473Z,48.25
2022-10-18T04:47:03.686Z,48.54
2022-10-18T04:47:38.566Z,48.58
2022-10-18T04:48:13.409Z,48.21
2022-10-18T04:48:45.706Z,48.26
2022-10-18T04:49:20.662Z,48.08
2022-10-18T04:49:53.063Z,48.38
2022-10-18T04:50:25.477Z,48.21
2022-10-18T04:51:00.340Z,48.45
2022-10-18T04:51:32.575Z,48.21
2022-10-18T04:52:07.714Z,48.50
2022-10-18T04:52:40.137Z,48.43
2022-10-18T04:53:12.434Z,48.22
2022-10-18T04:53:47.245Z,48.26
2022-10-18T04:54:19.852Z,48.26
2022-10-18T04:54:53.277Z,48.62
2022-10-18T04:55:28.202Z,48.59
2022-10-18T04:56:00.501Z,48.40
2022-10-18T04:56:32.882Z,48.46
2022-10-18T04:57:07.835Z,48.66
2022-10-18T04:57:40.042Z,48.33
2022-10-18T04:58:12.460Z,48.52
2022-10-18T04:58:47.293Z,48.51
2022-10-18T04:59:19.805Z,48.51
2022-10-18T04:59:52.209Z,48.28
2022-10-18T05:00:27.110Z,48.69
2022-10-18T05:00:59.329Z,48.04
2022-10-18T05:01:34.350Z,47.80
2022-10-18T05:02:06.666Z,47.78
2022-10-18T05:02:38.906Z,48.19
2022-10-18T05:03:18.970Z,47.92
2022-10-18T05:03:53.278Z,48.12
2022-10-18T05:04:25.649Z,48.52
2022-10-18T05:05:00.471Z,48.51
2022-10-18T05:05:49.563Z,48.83
2022-10-18T05:06:27.543Z,49.03
2022-10-18T05:06:59.787Z,49.31
2022-10-18T05:07:34.626Z,49.46
2022-10-18T05:08:07.173Z,49.10
2022-10-18T05:08:39.389Z,49.17
2022-10-18T05:09:14.229Z,49.27
2022-10-18T05:09:46.441Z,49.67
2022-10-18T05:10:21.265Z,49.46
2022-10-18T05:10:53.598Z,49.85
2022-10-18T05:11:25.878Z,49.38
2022-10-18T05:12:00.748Z,49.70
2022-10-18T05:12:33.328Z,49.49
2022-10-18T05:13:05.794Z,49.70
2022-10-18T05:13:40.857Z,49.77
2022-10-18T05:14:13.128Z,49.70
2022-10-18T05:14:45.360Z,49.91
2022-10-18T05:15:20.416Z,49.70
2022-10-18T05:15:52.757Z,49.69
2022-10-18T05:16:25.009Z,50.10
2022-10-18T05:16:59.822Z,50.20
2022-10-18T05:17:32.114Z,50.04
2022-10-18T05:18:04.419Z,50.21
2022-10-18T05:18:43.186Z,49.96
2022-10-18T05:19:15.418Z,49.80
2022-10-18T05:19:47.646Z,50.18
2022-10-18T05:20:19.871Z,50.13
2022-10-18T05:20:54.693Z,50.38
2022-10-18T05:21:26.901Z,50.20
2022-10-18T05:21:59.118Z,49.83
2022-10-18T05:22:34.090Z,50.18
2022-10-18T05:23:06.548Z,50.31
2022-10-18T05:23:38.959Z,50.32
2022-10-18T05:24:14.301Z,50.16
2022-10-18T05:24:46.519Z,50.31
2022-10-18T05:25:18.792Z,49.89
2022-10-18T05:25:53.996Z,50.07
2022-10-18T05:26:26.249Z,50.16
2022-10-18T05:26:58.482Z,49.84
2022-10-18T05:27:33.442Z,50.02
2022-10-18T05:28:10.701Z,50.25
2022-10-18T05:28:48.005Z,49.79
2022-10-18T05:29:22.931Z,49.87
2022-10-18T05:29:55.240Z,50.23
2022-10-18T05:30:27.446Z,50.08
2022-10-18T05:31:04.485Z,49.83
2022-10-18T05:31:36.719Z,49.99
2022-10-18T05:32:08.957Z,49.77
2022-10-18T05:32:43.814Z,50.05
2022-10-18T05:33:16.041Z,50.13
2022-10-18T05:33:50.867Z,49.76
2022-10-18T05:34:27.405Z,49.94
2022-10-18T05:34:59.642Z,49.89
2022-10-18T05:35:31.869Z,49.78
2022-10-18T05:36:07.134Z,50.05
2022-10-18T05:36:39.352Z,50.18
2022-10-18T05:37:11.574Z,50.30
2022-10-18T05:37:46.434Z,50.28
2022-10-18T05:38:18.672Z,50.16
2022-10-18T05:38:50.885Z,50.06
2022-10-18T05:39:25.790Z,50.11
2022-10-18T05:39:58.124Z,49.99
2022-10-18T05:40:30.834Z,49.93
2022-10-18T05:41:07.409Z,50.15
2022-10-18T05:41:39.633Z,49.96
2022-10-18T05:42:12.360Z,49.99
2022-10-18T05:42:47.181Z,50.20
2022-10-18T05:43:19.394Z,50.34
2022-10-18T05:43:51.723Z,50.32
2022-10-18T05:44:26.642Z,49.96
2022-10-18T05:44:58.861Z,50.12
2022-10-18T05:45:31.064Z,50.24
2022-10-18T05:46:11.843Z,50.28
2022-10-18T05:46:46.153Z,49.99
2022-10-18T05:47:21.127Z,50.22
2022-10-18T05:47:53.687Z,50.49
2022-10-18T05:48:26.706Z,50.24
2022-10-18T05:49:04.241Z,50.16
2022-10-18T05:49:36.458Z,50.22
2022-10-18T05:50:12.385Z,50.01
2022-10-18T05:50:44.849Z,50.25
2022-10-18T05:51:17.385Z,50.13
2022-10-18T05:51:52.306Z,50.13
2022-10-18T05:52:24.606Z,50.65
2022-10-18T05:53:02.739Z,50.47
2022-10-18T05:53:47.096Z,50.32
2022-10-18T05:54:19.331Z,50.42
2022-10-18T05:54:51.541Z,50.39
2022-10-18T05:55:26.382Z,50.49
2022-10-18T05:56:00.790Z,50.25
2022-10-18T05:56:35.623Z,50.61
2022-10-18T05:57:07.855Z,50.49
2022-10-18T05:57:40.070Z,50.47
2022-10-18T05:58:15.505Z,50.46
2022-10-18T05:59:00.942Z,50.54
2022-10-18T05:59:35.778Z,50.44
2022-10-18T06:00:13.076Z,50.27
2022-10-18T06:00:45.479Z,50.36
2022-10-18T06:01:20.779Z,50.64
2022-10-18T06:01:52.991Z,50.54
2022-10-18T06:02:25.244Z,50.37
2022-10-18T06:03:00.588Z,50.36
2022-10-18T06:03:33.569Z,50.51
2022-10-18T06:04:11.584Z,50.42
2022-10-18T06:04:43.834Z,50.34
2022-10-18T06:05:16.261Z,50.35
2022-10-18T06:05:51.070Z,50.70
2022-10-18T06:06:23.273Z,50.54
2022-10-18T06:06:58.111Z,50.73
2022-10-18T06:07:30.543Z,50.73
2022-10-18T06:08:05.320Z,50.42
2022-10-18T06:08:45.446Z,50.39
2022-10-18T06:09:17.823Z,50.37
2022-10-18T06:09:50.063Z,50.72
2022-10-18T06:10:24.884Z,50.60
2022-10-18T06:10:57.152Z,50.98
2022-10-18T06:11:29.951Z,50.75
2022-10-18T06:12:04.762Z,50.69
2022-10-18T06:12:37.022Z,50.79
2022-10-18T06:13:09.246Z,50.92
2022-10-18T06:13:44.786Z,51.13
2022-10-18T06:14:16.995Z,51.26
2022-10-18T06:14:51.807Z,51.11
2022-10-18T06:15:24.031Z,51.41
2022-10-18T06:15:56.893Z,51.23
2022-10-18T06:16:32.742Z,51.35
2022-10-18T06:17:05.304Z,51.13
2022-10-18T06:17:37.880Z,50.78
2022-10-18T06:18:13.011Z,50.72
2022-10-18T06:18:48.129Z,50.97
2022-10-18T06:19:23.022Z,50.58
2022-10-18T06:19:57.863Z,50.69
2022-10-18T06:20:30.082Z,50.87
2022-10-18T06:21:02.401Z,50.81
2022-10-18T06:21:37.425Z,51.10
2022-10-18T06:22:09.651Z,51.14
2022-10-18T06:22:41.956Z,50.91
2022-10-18T06:23:16.802Z,51.02
2022-10-18T06:23:49.384Z,50.73
2022-10-18T06:24:21.990Z,50.77
2022-10-18T06:24:57.368Z,50.96
2022-10-18T06:25:29.661Z,51.03
2022-10-18T06:26:02.723Z,51.11
2022-10-18T06:26:37.598Z,50.75
2022-10-18T06:27:09.956Z,50.97
2022-10-18T06:27:42.170Z,51.18
2022-10-18T06:28:17.011Z,50.75
2022-10-18T06:28:49.309Z,50.75
2022-10-18T06:29:24.163Z,50.90
2022-10-18T06:29:56.396Z,51.10
2022-10-18T06:30:28.609Z,51.09
2022-10-18T06:31:03.445Z,51.19
2022-10-18T06:31:35.656Z,50.97
2022-10-18T06:32:11.345Z,50.98
2022-10-18T06:32:43.556Z,50.94
2022-10-18T06:33:15.805Z,51.16
2022-10-18T06:33:50.923Z,51.23
2022-10-18T06:34:25.758Z,51.16
2022-10-18T06:34:57.982Z,51.29
2022-10-18T06:35:32.874Z,51.01
2022-10-18T06:36:06.846Z,51.22
2022-10-18T06:36:39.074Z,51.04
2022-10-18T06:37:13.934Z,51.12
2022-10-18T06:37:46.193Z,51.04
2022-10-18T06:38:18.452Z,51.19
2022-10-18T06:38:53.696Z,51.04
2022-10-18T06:39:26.299Z,51.28
2022-10-18T06:39:58.515Z,51.23
2022-10-18T06:40:37.892Z,51.02
2022-10-18T06:41:10.787Z,51.16
2022-10-18T06:41:45.666Z,51.21
2022-10-18T06:42:24.841Z,50.82
2022-10-18T06:43:00.637Z,51.07
2022-10-18T06:43:45.931Z,51.03
2022-10-18T06:44:18.712Z,50.92
2022-10-18T06:44:54.240Z,50.92
2022-10-18T06:45:27.276Z,50.84
2022-10-18T06:46:05.286Z,50.88
2022-10-18T06:46:40.165Z,51.24
2022-10-18T06:47:12.412Z,51.16
2022-10-18T06:47:47.290Z,50.98
2022-10-18T06:49:18.962Z,50.93
2022-10-18T06:49:54.191Z,50.99
2022-10-18T06:50:27.427Z,50.89
2022-10-18T06:51:03.444Z,51.03
2022-10-18T06:51:35.662Z,51.30
2022-10-18T06:52:10.489Z,51.00
2022-10-18T06:52:42.698Z,51.20
2022-10-18T06:53:14.987Z,51.20
2022-10-18T06:54:05.935Z,51.09
2022-10-18T06:54:44.210Z,51.00
2022-10-18T06:55:20.084Z,50.92
2022-10-18T06:55:52.356Z,50.93
2022-10-18T06:56:27.170Z,51.30
2022-10-18T06:56:59.609Z,51.00
2022-10-18T06:57:31.950Z,51.11
2022-10-18T06:58:06.829Z,51.09
2022-10-18T06:58:39.760Z,51.25
2022-10-18T06:59:12.061Z,51.00
2022-10-18T06:59:46.866Z,51.07
2022-10-18T07:00:19.288Z,51.33
2022-10-18T07:00:51.495Z,51.18
2022-10-18T07:01:26.728Z,51.09
2022-10-18T07:01:59.033Z,51.06
2022-10-18T07:02:31.539Z,50.87
2022-10-18T07:03:06.778Z,51.30
2022-10-18T07:03:39.161Z,51.14
2022-10-18T07:04:14.127Z,51.32
2022-10-18T07:04:46.352Z,51.07
2022-10-18T07:05:21.210Z,51.32
2022-10-18T07:05:56.069Z,50.96
2022-10-18T07:06:28.452Z,51.07
2022-10-18T07:07:03.360Z,51.14
2022-10-18T07:07:35.867Z,50.97
2022-10-18T07:08:08.374Z,51.03
2022-10-18T07:08:43.742Z,51.26
2022-10-18T07:09:15.981Z,51.26
2022-10-18T07:09:48.678Z,51.38
2022-10-18T07:10:23.549Z,51.07
2022-10-18T07:10:55.857Z,51.12
2022-10-18T07:11:28.084Z,51.45
2022-10-18T07:12:02.895Z,51.04
2022-10-18T07:12:35.126Z,51.48
2022-10-18T07:13:30.820Z,51.13
2022-10-18T07:14:05.009Z,51.38
2022-10-18T07:14:37.236Z,51.06
2022-10-18T07:15:11.014Z,51.45
2022-10-18T07:15:45.836Z,51.04
2022-10-18T07:16:19.302Z,51.22
2022-10-18T07:16:54.239Z,51.32
2022-10-18T07:17:26.960Z,51.23
2022-10-18T07:17:59.193Z,51.49
2022-10-18T07:18:34.094Z,51.26
2022-10-18T07:19:06.363Z,51.07
2022-10-18T07:19:41.215Z,51.05
2022-10-18T07:20:13.571Z,51.23
2022-10-18T07:20:48.407Z,51.03
2022-10-18T07:21:24.741Z,51.23
2022-10-18T07:21:56.990Z,50.97
2022-10-18T07:22:31.795Z,51.23
2022-10-18T07:23:05.668Z,51.23
2022-10-18T07:23:41.906Z,51.02
2022-10-18T07:24:14.254Z,51.01
2022-10-18T07:24:49.126Z,51.40
2022-10-18T07:25:21.341Z,51.46
2022-10-18T07:25:53.566Z,51.33
2022-10-18T07:26:30.146Z,51.33
2022-10-18T07:27:02.353Z,51.32
2022-10-18T07:27:36.901Z,50.99
2022-10-18T07:28:11.720Z,51.18
2022-10-18T07:28:45.409Z,51.37
2022-10-18T07:29:17.705Z,50.95